Time;durP1;ratioP1;P1;durP2;ratioP2;P2;SDS_P1;SDS_P2;PMS_P1;PMS_P2;Temp;Humidity;BMP_temperature;BMP_pressure;BME280_temperature;BME280_humidity;BME280_pressure;Samples;Min_cycle;Max_cycle;Signal;HPM_P1;HPM_P2
2022/01/06 00:01:32;;;;;;;4.03;1.00;;;4.00;99.90;;;;;;5011671;28;20252;-78
2022/01/06 00:03:59;;;;;;;4.30;1.20;;;4.00;99.90;;;;;;5011145;28;20218;-78
2022/01/06 00:06:25;;;;;;;5.03;1.13;;;4.00;99.90;;;;;;5021905;28;20230;-77
2022/01/06 00:08:54;;;;;;;4.77;0.97;;;4.00;99.90;;;;;;5015153;28;20228;-77
2022/01/06 00:11:23;;;;;;;2.97;0.90;;;3.90;99.90;;;;;;5014449;28;20250;-77
2022/01/06 00:13:56;;;;;;;3.90;1.37;;;3.90;99.90;;;;;;5006125;28;20608;-77
2022/01/06 00:16:35;;;;;;;3.17;1.10;;;3.90;99.90;;;;;;5011235;28;20299;-77
2022/01/06 00:24:30;;;;;;;2.87;1.13;;;3.80;99.90;;;;;;5006575;28;20255;-78
2022/01/06 00:26:59;;;;;;;3.20;1.00;;;3.70;99.90;;;;;;5010920;28;20235;-78
2022/01/06 00:29:25;;;;;;;5.00;1.20;;;3.70;99.90;;;;;;5001226;28;20297;-78
2022/01/06 00:31:52;;;;;;;5.10;1.17;;;3.70;99.90;;;;;;5008143;28;20244;-78
2022/01/06 00:34:19;;;;;;;3.00;1.00;;;3.60;99.90;;;;;;5004989;28;20228;-77
2022/01/06 00:36:46;;;;;;;5.43;1.10;;;3.60;99.90;;;;;;5006371;28;20366;-77
2022/01/06 00:39:13;;;;;;;2.87;1.10;;;3.60;99.90;;;;;;5009611;28;20215;-77
2022/01/06 00:41:40;;;;;;;6.07;1.10;;;3.50;99.90;;;;;;5008706;28;20242;-77
2022/01/06 00:44:09;;;;;;;5.83;0.90;;;3.50;99.90;;;;;;4998036;28;20227;-77
2022/01/06 00:46:36;;;;;;;3.17;1.20;;;3.50;99.90;;;;;;5007185;28;20227;-78
2022/01/06 00:49:03;;;;;;;4.57;1.13;;;3.50;99.90;;;;;;5007333;28;20325;-78
2022/01/06 00:51:30;;;;;;;2.33;1.23;;;3.40;99.90;;;;;;5007331;28;20706;-77
2022/01/06 00:53:56;;;;;;;4.47;1.10;;;3.40;99.90;;;;;;5005495;28;20215;-77
2022/01/06 00:56:23;;;;;;;2.37;0.80;;;3.40;99.90;;;;;;5017718;28;20224;-77
2022/01/06 00:58:50;;;;;;;5.73;1.10;;;3.40;99.90;;;;;;5009725;28;20228;-77
2022/01/06 01:01:18;;;;;;;3.00;0.97;;;3.30;99.90;;;;;;5006679;28;20570;-77
2022/01/06 01:03:44;;;;;;;6.13;1.00;;;3.30;99.90;;;;;;5002973;28;20266;-78
2022/01/06 01:06:11;;;;;;;5.03;1.10;;;3.30;99.90;;;;;;4999779;28;20419;-78
2022/01/06 01:08:39;;;;;;;4.23;1.13;;;3.30;99.90;;;;;;5013639;28;20851;-77
2022/01/06 01:11:06;;;;;;;5.03;1.10;;;3.30;99.90;;;;;;5006599;28;20220;-78
2022/01/06 01:13:37;;;;;;;1.33;0.90;;;3.30;99.90;;;;;;5008104;28;20233;-77
2022/01/06 01:16:20;;;;;;;5.37;1.03;;;3.30;99.90;;;;;;5012705;28;20829;-77
2022/01/06 01:18:49;;;;;;;3.20;0.97;;;3.20;99.90;;;;;;5021141;28;20304;-77
2022/01/06 01:21:16;;;;;;;6.53;1.20;;;3.20;99.90;;;;;;5011016;28;20223;-77
2022/01/06 01:23:43;;;;;;;9.53;1.57;;;3.20;99.90;;;;;;5007932;28;20219;-77
2022/01/06 01:26:09;;;;;;;8.07;1.30;;;3.10;99.90;;;;;;5009771;28;20229;-77
2022/01/06 01:28:43;;;;;;;2.73;0.80;;;3.10;99.90;;;;;;5007839;28;20228;-77
2022/01/06 01:31:23;;;;;;;3.13;1.00;;;3.10;99.90;;;;;;5003979;28;20234;-78
2022/01/06 01:33:52;;;;;;;3.00;0.90;;;3.10;99.90;;;;;;5017056;28;20226;-78
2022/01/06 01:36:20;;;;;;;3.70;1.10;;;3.00;99.90;;;;;;5008375;28;20651;-78
2022/01/06 01:38:47;;;;;;;3.30;1.27;;;3.00;99.90;;;;;;5013449;28;20975;-78
2022/01/06 01:41:13;;;;;;;5.33;1.77;;;3.00;99.90;;;;;;5011649;28;20223;-78
2022/01/06 01:43:41;;;;;;;5.47;1.40;;;2.90;99.90;;;;;;5002927;28;20685;-77
2022/01/06 01:46:11;;;;;;;4.73;1.17;;;2.90;99.90;;;;;;5009834;28;20592;-77
2022/01/06 01:48:41;;;;;;;4.73;1.10;;;2.90;99.90;;;;;;5010854;28;20427;-78
2022/01/06 01:51:09;;;;;;;3.90;1.03;;;2.90;99.90;;;;;;5021983;28;20310;-78
2022/01/06 01:53:37;;;;;;;4.97;1.03;;;2.80;99.90;;;;;;4995899;28;20224;-78
2022/01/06 01:56:06;;;;;;;2.83;0.90;;;2.80;99.90;;;;;;5012394;28;20222;-78
2022/01/06 01:58:33;;;;;;;3.50;1.00;;;2.80;99.90;;;;;;5015136;28;20276;-78
2022/01/06 02:01:00;;;;;;;4.10;1.10;;;2.70;99.90;;;;;;5009574;28;20236;-78
2022/01/06 02:03:31;;;;;;;2.90;1.10;;;2.70;99.90;;;;;;5009183;28;20729;-78
2022/01/06 02:05:57;;;;;;;4.93;1.47;;;2.70;99.90;;;;;;5028897;28;20246;-78
2022/01/06 02:08:25;;;;;;;7.23;1.30;;;2.70;99.90;;;;;;5014567;28;20222;-78
2022/01/06 02:10:52;;;;;;;4.47;1.10;;;2.70;99.90;;;;;;5010846;28;20535;-78
2022/01/06 02:13:23;;;;;;;5.13;1.73;;;2.70;99.90;;;;;;5004779;28;20243;-78
2022/01/06 02:15:50;;;;;;;6.90;1.83;;;2.70;99.90;;;;;;5010209;28;20255;-78
2022/01/06 02:18:16;;;;;;;5.80;1.30;;;2.60;99.90;;;;;;5007773;28;20713;-78
2022/01/06 02:20:44;;;;;;;3.93;1.23;;;2.60;99.90;;;;;;5019377;28;20218;-78
2022/01/06 02:23:11;;;;;;;2.27;0.90;;;2.60;99.90;;;;;;5013941;28;20211;-78
2022/01/06 02:25:38;;;;;;;5.50;1.10;;;2.60;99.90;;;;;;5010668;28;20993;-78
2022/01/06 02:28:05;;;;;;;2.47;1.00;;;2.60;99.90;;;;;;5011138;28;20225;-78
2022/01/06 02:30:34;;;;;;;3.33;0.90;;;2.60;99.90;;;;;;5016921;28;20314;-80
2022/01/06 02:33:02;;;;;;;4.23;1.00;;;2.60;99.90;;;;;;5020227;28;20304;-80
2022/01/06 02:35:30;;;;;;;4.70;1.10;;;2.60;99.90;;;;;;5005880;28;20245;-80
2022/01/06 02:37:59;;;;;;;4.43;1.40;;;2.50;99.90;;;;;;5023388;28;20255;-80
2022/01/06 02:40:27;;;;;;;3.13;1.20;;;2.50;99.90;;;;;;5001417;28;20223;-80
2022/01/06 02:42:57;;;;;;;2.20;0.90;;;2.40;99.90;;;;;;5007946;28;20960;-80
2022/01/06 02:45:26;;;;;;;5.50;1.03;;;2.40;99.90;;;;;;5013658;28;20218;-80
2022/01/06 02:47:54;;;;;;;5.30;1.40;;;2.30;99.90;;;;;;5009962;28;20375;-80
2022/01/06 02:50:21;;;;;;;3.47;0.90;;;2.30;99.90;;;;;;5011372;28;20237;-79
2022/01/06 02:52:48;;;;;;;5.27;1.17;;;2.30;99.90;;;;;;5013845;28;20666;-80
2022/01/06 02:55:17;;;;;;;6.53;1.17;;;2.30;99.90;;;;;;5009661;28;20224;-80
2022/01/06 02:57:45;;;;;;;1.63;1.10;;;2.30;99.90;;;;;;5021823;28;20229;-80
2022/01/06 03:00:14;;;;;;;3.37;1.10;;;2.20;99.90;;;;;;5008535;28;20223;-81
2022/01/06 03:02:43;;;;;;;6.30;1.30;;;2.20;99.90;;;;;;4996437;28;20720;-81
2022/01/06 03:05:10;;;;;;;5.07;1.20;;;2.10;99.90;;;;;;5006811;28;20744;-80
2022/01/06 03:07:36;;;;;;;3.10;0.90;;;2.10;99.90;;;;;;5016206;28;20230;-81
2022/01/06 03:10:06;;;;;;;8.03;2.17;;;2.10;99.90;;;;;;5010549;28;20217;-79
2022/01/06 03:12:39;;;;;;;5.60;1.20;;;2.10;99.90;;;;;;5038314;28;20230;-79
2022/01/06 03:15:07;;;;;;;4.63;1.40;;;2.10;99.90;;;;;;5003725;28;20222;-79
2022/01/06 03:17:34;;;;;;;3.43;1.03;;;2.00;99.90;;;;;;5002850;28;20268;-79
2022/01/06 03:20:01;;;;;;;4.67;1.03;;;2.00;99.90;;;;;;5015575;28;20229;-79
2022/01/06 03:22:28;;;;;;;3.27;1.20;;;2.00;99.90;;;;;;5008430;28;20267;-79
2022/01/06 03:24:54;;;;;;;5.23;1.10;;;2.00;99.90;;;;;;4999267;28;20234;-78
2022/01/06 03:27:21;;;;;;;7.37;1.30;;;1.90;99.90;;;;;;5008456;28;20231;-80
2022/01/06 03:29:50;;;;;;;5.00;1.30;;;2.00;99.90;;;;;;5007704;28;20251;-80
2022/01/06 03:32:17;;;;;;;6.90;1.47;;;1.90;99.90;;;;;;5009038;28;20256;-79
2022/01/06 03:34:44;;;;;;;3.53;1.00;;;2.00;99.90;;;;;;4998799;28;20231;-80
2022/01/06 03:37:11;;;;;;;7.03;1.00;;;1.90;99.90;;;;;;5009747;28;20232;-79
2022/01/06 03:39:38;;;;;;;6.47;2.00;;;1.90;99.90;;;;;;5014403;28;20217;-79
2022/01/06 03:42:05;;;;;;;4.00;1.40;;;1.90;99.90;;;;;;5009072;28;20298;-79
2022/01/06 03:44:32;;;;;;;6.27;1.77;;;1.90;99.90;;;;;;5007629;28;20820;-79
2022/01/06 03:47:00;;;;;;;4.77;1.30;;;1.90;99.90;;;;;;5007780;28;20255;-79
2022/01/06 03:49:27;;;;;;;3.93;1.23;;;1.80;99.90;;;;;;5007527;28;20229;-79
2022/01/06 03:51:53;;;;;;;4.40;1.40;;;1.80;99.90;;;;;;5012389;28;20219;-79
2022/01/06 03:54:20;;;;;;;5.10;1.30;;;1.80;99.90;;;;;;5002032;28;20220;-79
2022/01/06 03:56:48;;;;;;;3.60;1.10;;;1.80;99.90;;;;;;5014255;28;20299;-79
2022/01/06 03:59:15;;;;;;;6.93;1.40;;;1.70;99.90;;;;;;5006520;28;20225;-79
2022/01/06 04:01:42;;;;;;;3.13;1.40;;;1.70;99.90;;;;;;5008098;28;20711;-78
2022/01/06 04:04:10;;;;;;;2.10;1.00;;;1.70;99.90;;;;;;5014319;28;20227;-79
2022/01/06 04:06:37;;;;;;;4.30;1.23;;;1.70;99.90;;;;;;5004074;28;20309;-79
2022/01/06 04:09:04;;;;;;;5.53;1.80;;;1.70;99.90;;;;;;4989581;28;20231;-79
2022/01/06 04:11:31;;;;;;;3.23;1.40;;;1.70;99.90;;;;;;5008029;28;20258;-79
2022/01/06 04:13:58;;;;;;;4.27;1.40;;;1.70;99.90;;;;;;5013158;28;20222;-79
2022/01/06 04:16:26;;;;;;;10.03;1.60;;;1.70;99.90;;;;;;4994958;28;20222;-79
2022/01/06 04:18:53;;;;;;;3.23;1.30;;;1.70;99.90;;;;;;5012586;28;20278;-80
2022/01/06 04:21:22;;;;;;;5.03;1.30;;;1.80;99.90;;;;;;5012410;28;20594;-79
2022/01/06 04:23:49;;;;;;;3.07;1.40;;;1.80;99.90;;;;;;5015829;28;20235;-79
2022/01/06 04:26:16;;;;;;;6.93;1.80;;;1.90;99.90;;;;;;5015022;28;20220;-80
2022/01/06 04:28:43;;;;;;;6.77;1.40;;;1.90;99.90;;;;;;4998267;28;20257;-80
2022/01/06 04:31:10;;;;;;;4.33;1.73;;;2.10;99.90;;;;;;5001755;28;20218;-80
2022/01/06 04:33:37;;;;;;;3.83;1.37;;;2.10;99.90;;;;;;5009056;28;20703;-81
2022/01/06 04:36:05;;;;;;;5.97;1.40;;;2.10;99.90;;;;;;5008319;28;20228;-80
2022/01/06 04:38:33;;;;;;;8.03;1.70;;;2.20;99.90;;;;;;5008708;28;20695;-80
2022/01/06 04:41:00;;;;;;;4.27;1.20;;;2.20;99.90;;;;;;5001021;28;20313;-80
2022/01/06 04:43:27;;;;;;;5.23;1.30;;;2.30;99.90;;;;;;5006950;28;20221;-80
2022/01/06 04:45:54;;;;;;;3.60;1.33;;;2.40;99.90;;;;;;5004336;28;20292;-80
2022/01/06 04:48:20;;;;;;;6.67;1.20;;;2.40;99.90;;;;;;5001952;28;20218;-78
2022/01/06 04:50:47;;;;;;;4.27;1.23;;;2.50;99.90;;;;;;5012571;28;20646;-79
2022/01/06 04:53:14;;;;;;;4.90;1.73;;;2.50;99.90;;;;;;5011180;28;20225;-78
2022/01/06 04:55:42;;;;;;;30.43;4.17;;;2.60;99.90;;;;;;5008612;28;20250;-79
2022/01/06 04:58:09;;;;;;;3.13;1.40;;;2.60;99.90;;;;;;5007745;28;20227;-79
2022/01/06 05:00:36;;;;;;;3.53;1.20;;;2.60;99.90;;;;;;5001869;28;20229;-79
2022/01/06 05:03:03;;;;;;;3.67;1.40;;;2.60;99.90;;;;;;5006804;28;20222;-79
2022/01/06 05:05:29;;;;;;;7.27;1.70;;;2.60;99.90;;;;;;5007528;28;20262;-79
2022/01/06 05:07:56;;;;;;;2.13;1.37;;;2.60;99.90;;;;;;5006542;28;20227;-79
2022/01/06 05:10:23;;;;;;;3.93;1.10;;;2.50;99.90;;;;;;5021822;28;20245;-78
2022/01/06 05:12:51;;;;;;;4.70;1.33;;;2.50;99.90;;;;;;4998848;28;20235;-82
2022/01/06 05:15:17;;;;;;;4.93;1.37;;;2.50;99.90;;;;;;5005795;28;20223;-82
2022/01/06 05:17:44;;;;;;;12.10;2.23;;;2.40;99.90;;;;;;5007717;28;20241;-82
2022/01/06 05:20:12;;;;;;;5.03;1.53;;;2.40;99.90;;;;;;5003757;28;20710;-83
2022/01/06 05:22:44;;;;;;;136.40;9.03;;;2.40;99.90;;;;;;5006515;28;20242;-80
2022/01/06 05:25:11;;;;;;;8.53;1.53;;;2.30;99.90;;;;;;5006470;28;20232;-80
2022/01/06 05:27:38;;;;;;;8.13;1.80;;;2.30;99.90;;;;;;5011638;28;20275;-80
2022/01/06 05:30:08;;;;;;;4.37;1.50;;;2.30;99.90;;;;;;5006591;28;20223;-81
2022/01/06 05:32:34;;;;;;;2.37;1.33;;;2.30;99.90;;;;;;5004728;28;20239;-80
2022/01/06 05:35:01;;;;;;;8.00;1.70;;;2.30;99.90;;;;;;5000009;28;20319;-81
2022/01/06 05:37:28;;;;;;;4.83;1.73;;;2.20;99.90;;;;;;5006004;28;20221;-82
2022/01/06 05:39:55;;;;;;;4.90;1.70;;;2.20;99.90;;;;;;5005206;28;20783;-83
2022/01/06 05:42:22;;;;;;;5.17;1.50;;;2.20;99.90;;;;;;5005024;28;20208;-80
2022/01/06 05:44:49;;;;;;;5.33;1.50;;;2.20;99.90;;;;;;5018354;28;20713;-81
2022/01/06 05:47:17;;;;;;;2.97;1.50;;;2.20;99.90;;;;;;5004349;28;20306;-81
2022/01/06 05:49:43;;;;;;;7.57;1.70;;;2.20;99.90;;;;;;5014019;28;20224;-80
2022/01/06 05:52:10;;;;;;;2.67;1.40;;;2.20;99.90;;;;;;5009149;28;20222;-81
2022/01/06 05:54:37;;;;;;;5.37;1.63;;;2.20;99.90;;;;;;4990756;28;20602;-81
2022/01/06 05:57:05;;;;;;;6.03;1.53;;;2.30;99.90;;;;;;5009238;28;20227;-81
2022/01/06 05:59:32;;;;;;;6.37;1.70;;;2.30;99.90;;;;;;5013079;28;20866;-81
2022/01/06 06:01:59;;;;;;;5.13;1.93;;;2.20;99.90;;;;;;5013467;28;20224;-83
2022/01/06 06:04:28;;;;;;;3.53;1.23;;;2.30;99.90;;;;;;5002974;28;20229;-82
2022/01/06 06:06:55;;;;;;;4.33;1.40;;;2.20;99.90;;;;;;5013239;28;20235;-81
2022/01/06 06:09:21;;;;;;;4.53;1.27;;;2.20;99.90;;;;;;5008854;28;20248;-80
2022/01/06 06:11:48;;;;;;;5.27;1.43;;;2.20;99.90;;;;;;5016791;28;20231;-81
2022/01/06 06:14:15;;;;;;;3.47;1.50;;;2.20;99.90;;;;;;5015238;28;20237;-81
2022/01/06 06:16:42;;;;;;;5.53;1.30;;;2.20;99.90;;;;;;5002100;28;20225;-82
2022/01/06 06:19:08;;;;;;;6.10;1.70;;;2.10;99.90;;;;;;5008373;28;20223;-82
2022/01/06 06:21:37;;;;;;;4.97;1.83;;;2.10;99.90;;;;;;5012319;28;20218;-81
2022/01/06 06:24:04;;;;;;;5.10;2.20;;;2.10;99.90;;;;;;5006847;28;20218;-82
2022/01/06 06:26:31;;;;;;;3.63;1.20;;;2.00;99.90;;;;;;5023034;28;20227;-81
2022/01/06 06:28:57;;;;;;;4.10;1.30;;;2.00;99.90;;;;;;5033152;28;20238;-82
2022/01/06 06:31:24;;;;;;;7.03;1.93;;;2.00;99.90;;;;;;5026211;28;20316;-81
2022/01/06 06:33:51;;;;;;;6.13;1.77;;;1.90;99.90;;;;;;5020823;28;20231;-82
2022/01/06 06:36:17;;;;;;;4.10;1.60;;;1.90;99.90;;;;;;5012074;28;20214;-82
2022/01/06 06:38:45;;;;;;;6.17;1.30;;;1.80;99.90;;;;;;5010839;28;20221;-82
2022/01/06 06:41:12;;;;;;;6.07;1.67;;;1.80;99.90;;;;;;5004042;28;20224;-81
2022/01/06 06:43:39;;;;;;;4.10;1.20;;;1.70;99.90;;;;;;4997423;28;20315;-82
2022/01/06 06:46:08;;;;;;;3.43;1.10;;;1.70;99.90;;;;;;5001209;28;20229;-82
2022/01/06 06:48:35;;;;;;;2.63;1.17;;;1.60;99.90;;;;;;5019485;28;20682;-81
2022/01/06 06:51:02;;;;;;;3.50;1.40;;;1.60;99.90;;;;;;5005680;28;20933;-81
2022/01/06 06:53:29;;;;;;;5.60;1.50;;;1.50;99.90;;;;;;5006638;28;20221;-82
2022/01/06 06:55:57;;;;;;;3.30;1.40;;;1.50;99.90;;;;;;5008902;28;20222;-82
2022/01/06 06:58:24;;;;;;;4.30;1.40;;;1.50;99.90;;;;;;5008821;28;20214;-81
2022/01/06 07:00:50;;;;;;;5.03;1.53;;;1.40;99.90;;;;;;5009928;28;20248;-82
2022/01/06 07:03:17;;;;;;;3.00;1.30;;;1.40;99.90;;;;;;5005124;28;20230;-82
2022/01/06 07:05:44;;;;;;;4.70;1.40;;;1.40;99.90;;;;;;5008631;28;20217;-81
2022/01/06 07:08:11;;;;;;;3.23;1.37;;;1.30;99.90;;;;;;5004611;28;20226;-81
2022/01/06 07:10:37;;;;;;;4.83;1.87;;;1.30;99.90;;;;;;5010822;28;20223;-81
2022/01/06 07:13:06;;;;;;;5.27;2.20;;;1.30;99.90;;;;;;5003237;28;20269;-81
2022/01/06 07:15:33;;;;;;;4.97;1.90;;;1.20;99.90;;;;;;4999302;28;20715;-81
2022/01/06 07:18:00;;;;;;;6.63;1.60;;;1.20;99.90;;;;;;5007631;28;20710;-81
2022/01/06 07:20:27;;;;;;;4.00;1.80;;;1.20;99.90;;;;;;5010806;28;20226;-81
2022/01/06 07:22:53;;;;;;;6.17;1.90;;;1.20;99.90;;;;;;5003925;28;20320;-81
2022/01/06 07:25:21;;;;;;;6.23;1.90;;;1.20;99.90;;;;;;5015485;28;20238;-81
2022/01/06 07:27:48;;;;;;;6.03;1.93;;;1.10;99.90;;;;;;5019538;28;20223;-81
2022/01/06 07:30:16;;;;;;;8.80;2.67;;;1.10;99.90;;;;;;5009368;28;20219;-81
2022/01/06 07:32:44;;;;;;;4.63;2.50;;;1.10;99.90;;;;;;5014785;28;20230;-81
2022/01/06 07:35:11;;;;;;;8.20;2.67;;;1.10;99.90;;;;;;5036598;28;20226;-81
2022/01/06 07:37:38;;;;;;;9.03;2.13;;;1.10;99.90;;;;;;5013844;28;20686;-82
2022/01/06 07:40:07;;;;;;;5.17;2.23;;;1.10;99.90;;;;;;5006263;28;20229;-81
2022/01/06 07:42:34;;;;;;;6.03;2.70;;;1.10;99.90;;;;;;5014303;28;20675;-81
2022/01/06 07:45:01;;;;;;;4.33;2.27;;;1.10;99.90;;;;;;5013879;28;20237;-81
2022/01/06 07:47:31;;;;;;;9.27;2.53;;;1.10;99.90;;;;;;5019235;28;20222;-81
2022/01/06 07:49:58;;;;;;;7.83;2.20;;;1.10;99.90;;;;;;4999543;28;20413;-81
2022/01/06 07:52:25;;;;;;;9.57;2.93;;;1.10;99.90;;;;;;5007322;28;20210;-81
2022/01/06 07:54:52;;;;;;;9.50;2.67;;;1.10;99.90;;;;;;5003887;28;20229;-81
2022/01/06 07:57:19;;;;;;;8.17;2.50;;;1.20;99.90;;;;;;5010115;28;20236;-81
2022/01/06 07:59:45;;;;;;;6.40;2.60;;;1.20;99.90;;;;;;5015695;28;20219;-81
2022/01/06 08:02:12;;;;;;;11.37;2.90;;;1.20;99.90;;;;;;5005259;28;20222;-81
2022/01/06 08:04:40;;;;;;;5.33;2.03;;;1.30;99.90;;;;;;5025134;28;20317;-82
2022/01/06 08:07:07;;;;;;;6.97;2.40;;;1.30;99.90;;;;;;5005736;28;20232;-80
2022/01/06 08:09:33;;;;;;;6.00;2.37;;;1.40;99.90;;;;;;5007913;28;20874;-81
2022/01/06 08:12:00;;;;;;;5.77;2.43;;;1.40;99.90;;;;;;5007635;28;20217;-83
2022/01/06 08:14:29;;;;;;;6.50;2.13;;;1.40;99.90;;;;;;5019405;28;20227;-81
2022/01/06 08:16:57;;;;;;;8.90;2.80;;;1.50;99.90;;;;;;5003114;28;20216;-81
2022/01/06 08:19:24;;;;;;;6.23;2.27;;;1.50;99.90;;;;;;5016223;28;20217;-82
2022/01/06 08:21:52;;;;;;;9.03;2.83;;;1.60;99.90;;;;;;5030034;28;20654;-84
2022/01/06 08:24:19;;;;;;;7.57;2.93;;;1.70;99.90;;;;;;5010808;28;20631;-85
2022/01/06 08:26:49;;;;;;;4.83;2.83;;;1.80;99.90;;;;;;5012204;28;20325;-85
2022/01/06 08:29:15;;;;;;;7.27;3.20;;;2.10;99.90;;;;;;5009354;28;20223;-84
2022/01/06 08:31:42;;;;;;;6.80;2.87;;;2.20;99.90;;;;;;5014702;28;20236;-85
2022/01/06 08:34:09;;;;;;;5.40;2.57;;;2.50;99.90;;;;;;5019214;28;20228;-85
2022/01/06 08:36:35;;;;;;;6.30;2.83;;;2.80;99.90;;;;;;5014360;28;21338;-84
2022/01/06 08:39:03;;;;;;;5.73;2.43;;;3.20;99.90;;;;;;5009291;28;20859;-85
2022/01/06 08:41:30;;;;;;;4.30;2.07;;;3.60;99.90;;;;;;5009035;28;20222;-84
2022/01/06 08:43:57;;;;;;;7.30;2.07;;;4.00;99.90;;;;;;5035012;28;20233;-85
2022/01/06 08:46:24;;;;;;;4.60;2.53;;;4.50;99.90;;;;;;5022038;28;20220;-84
2022/01/06 08:48:50;;;;;;;8.50;2.77;;;5.00;99.90;;;;;;5007312;28;20279;-85
2022/01/06 08:51:18;;;;;;;5.00;2.10;;;5.50;99.90;;;;;;5004819;28;20215;-84
2022/01/06 08:53:45;;;;;;;5.43;2.60;;;5.90;99.90;;;;;;5001799;28;20297;-84
2022/01/06 08:56:13;;;;;;;7.20;3.27;;;6.40;99.90;;;;;;5001306;28;20252;-85
2022/01/06 08:58:40;;;;;;;9.13;2.97;;;6.90;99.90;;;;;;4997534;28;20327;-85
2022/01/06 09:01:06;;;;;;;4.57;2.13;;;7.30;99.90;;;;;;5004143;28;20233;-85
2022/01/06 09:03:33;;;;;;;7.40;3.63;;;7.80;99.90;;;;;;4999247;28;21156;-85
2022/01/06 09:06:00;;;;;;;7.57;2.50;;;8.20;99.90;;;;;;5007458;28;20300;-85
2022/01/06 09:08:27;;;;;;;4.30;2.30;;;8.60;99.90;;;;;;5033008;28;20225;-85
2022/01/06 09:10:53;;;;;;;6.00;2.20;;;9.00;99.90;;;;;;5033691;28;20220;-85
2022/01/06 09:13:21;;;;;;;6.00;2.13;;;9.30;99.90;;;;;;5005378;28;20221;-83
2022/01/06 09:15:48;;;;;;;4.53;2.30;;;9.70;99.90;;;;;;5005171;28;20226;-83
2022/01/06 09:18:15;;;;;;;4.67;2.00;;;10.00;99.90;;;;;;5003558;28;20210;-81
2022/01/06 09:20:41;;;;;;;4.60;1.97;;;10.30;99.90;;;;;;5012907;28;20222;-82
2022/01/06 09:23:08;;;;;;;6.07;2.57;;;10.50;99.90;;;;;;5006165;28;20290;-82
2022/01/06 09:25:35;;;;;;;4.37;2.30;;;10.70;99.90;;;;;;5004445;28;20410;-81
2022/01/06 09:28:02;;;;;;;5.60;2.00;;;10.90;99.90;;;;;;5022256;28;20635;-82
2022/01/06 09:30:30;;;;;;;5.50;2.30;;;11.20;99.90;;;;;;5026309;28;20232;-82
2022/01/06 09:32:56;;;;;;;4.80;2.50;;;11.40;99.90;;;;;;5013875;28;20223;-82
2022/01/06 09:35:23;;;;;;;3.57;2.10;;;11.60;99.90;;;;;;5016466;28;20223;-82
2022/01/06 09:37:50;;;;;;;4.77;2.00;;;11.80;99.90;;;;;;5008640;28;20246;-82
2022/01/06 09:40:17;;;;;;;7.87;3.37;;;12.10;99.90;;;;;;5006897;28;20220;-83
2022/01/06 09:42:44;;;;;;;6.80;3.40;;;12.30;99.90;;;;;;5006602;28;20829;-82
2022/01/06 09:45:12;;;;;;;18.03;10.87;;;12.50;99.90;;;;;;5012666;28;20314;-83
2022/01/06 09:47:41;;;;;;;8.00;3.27;;;12.70;99.80;;;;;;5010927;28;20221;-82
2022/01/06 09:50:10;;;;;;;7.73;2.40;;;12.90;99.30;;;;;;5009442;28;20247;-81
2022/01/06 09:52:37;;;;;;;5.30;2.23;;;13.10;99.20;;;;;;5022030;28;20225;-82
2022/01/06 09:55:04;;;;;;;4.13;2.03;;;13.30;99.30;;;;;;5009093;28;20256;-84
2022/01/06 09:57:31;;;;;;;4.90;2.63;;;13.50;99.10;;;;;;5008950;28;20245;-85
2022/01/06 09:59:58;;;;;;;4.63;2.00;;;13.70;98.90;;;;;;5011728;28;20219;-81
2022/01/06 10:02:33;;;;;;;6.43;2.17;;;13.80;98.50;;;;;;5012693;28;20295;-83
2022/01/06 10:05:04;;;;;;;4.00;1.77;;;13.90;97.60;;;;;;5015299;28;20217;-81
2022/01/06 10:07:36;;;;;;;5.63;1.80;;;14.00;97.50;;;;;;5015495;28;20231;-82
2022/01/06 10:10:06;;;;;;;5.50;2.03;;;14.10;97.30;;;;;;5001303;28;20229;-82
2022/01/06 10:12:33;;;;;;;5.53;1.70;;;14.10;97.40;;;;;;5009447;28;21185;-82
2022/01/06 10:15:00;;;;;;;4.23;1.60;;;14.10;97.80;;;;;;5017326;28;20229;-81
2022/01/06 10:17:31;;;;;;;6.20;1.80;;;14.00;97.30;;;;;;5028663;28;20227;-82
2022/01/06 10:20:08;;;;;;;6.57;1.57;;;14.10;96.80;;;;;;5018667;28;20588;-82
2022/01/06 10:22:44;;;;;;;7.57;2.03;;;14.10;97.30;;;;;;5021523;28;20250;-81
2022/01/06 10:25:11;;;;;;;5.90;1.70;;;14.00;96.60;;;;;;5004720;28;20219;-82
2022/01/06 10:27:38;;;;;;;4.77;1.90;;;14.00;97.30;;;;;;5006789;28;20714;-82
2022/01/06 10:30:07;;;;;;;6.20;1.93;;;14.10;96.70;;;;;;5014467;28;20760;-80
2022/01/06 10:32:34;;;;;;;6.10;1.73;;;14.10;96.90;;;;;;5006907;28;20231;-81
2022/01/06 10:35:03;;;;;;;4.70;1.80;;;14.20;96.80;;;;;;5017887;28;20607;-81
2022/01/06 10:37:31;;;;;;;6.27;1.97;;;14.20;96.80;;;;;;5013799;28;20231;-81
2022/01/06 10:40:04;;;;;;;4.47;1.77;;;14.20;96.30;;;;;;5006525;28;20598;-81
2022/01/06 10:42:32;;;;;;;3.93;1.30;;;14.20;96.10;;;;;;5006503;28;20236;-81
2022/01/06 10:45:05;;;;;;;6.13;1.77;;;14.20;96.20;;;;;;5011409;28;20589;-81
2022/01/06 10:47:34;;;;;;;2.43;1.03;;;14.10;96.20;;;;;;5012371;28;20247;-81
2022/01/06 10:50:12;;;;;;;4.50;1.30;;;14.10;96.20;;;;;;5014080;28;20222;-81
2022/01/06 10:52:41;;;;;;;5.37;1.67;;;14.00;95.70;;;;;;5018663;28;20224;-81
2022/01/06 10:55:15;;;;;;;4.67;1.33;;;13.90;96.10;;;;;;5026394;28;20223;-81
2022/01/06 10:57:54;;;;;;;6.07;1.70;;;13.80;95.40;;;;;;5009152;28;20261;-81
2022/01/06 11:00:22;;;;;;;2.53;1.33;;;13.70;95.10;;;;;;5015688;28;20238;-81
2022/01/06 11:02:48;;;;;;;5.20;1.70;;;13.60;95.70;;;;;;5024245;28;20318;-81
2022/01/06 11:05:15;;;;;;;4.60;1.80;;;13.50;95.60;;;;;;5006773;28;20218;-82
2022/01/06 11:07:42;;;;;;;3.00;1.20;;;13.40;95.70;;;;;;5014948;28;20642;-81
2022/01/06 11:10:16;;;;;;;4.90;1.50;;;13.40;95.80;;;;;;5010131;28;20522;-80
2022/01/06 11:12:44;;;;;;;3.80;1.47;;;13.30;95.50;;;;;;5012882;28;20399;-80
2022/01/06 11:15:11;;;;;;;4.13;1.20;;;13.30;95.60;;;;;;5039372;28;20240;-80
2022/01/06 11:17:38;;;;;;;7.40;1.23;;;13.20;95.70;;;;;;5017329;28;20762;-80
2022/01/06 11:20:07;;;;;;;3.70;1.60;;;13.20;95.80;;;;;;5016288;28;20226;-80
2022/01/06 11:22:33;;;;;;;4.53;1.43;;;13.10;95.90;;;;;;5017915;28;20931;-80
2022/01/06 11:25:02;;;;;;;3.83;1.70;;;13.10;95.90;;;;;;5014579;28;20231;-78
2022/01/06 11:27:35;;;;;;;4.53;1.60;;;13.10;96.10;;;;;;5011901;28;20214;-78
2022/01/06 11:30:12;;;;;;;3.53;1.33;;;13.20;95.70;;;;;;5009334;28;20303;-79
2022/01/06 11:32:41;;;;;;;4.77;1.47;;;13.10;95.20;;;;;;5022148;28;20231;-79
2022/01/06 11:35:11;;;;;;;4.17;1.23;;;13.10;95.50;;;;;;5014448;28;20847;-80
2022/01/06 11:37:43;;;;;;;4.07;1.20;;;13.10;95.40;;;;;;4985314;28;20239;-79
2022/01/06 11:40:11;;;;;;;3.53;1.20;;;13.00;95.40;;;;;;5010335;28;20218;-79
2022/01/06 11:42:38;;;;;;;2.03;0.97;;;13.00;95.80;;;;;;5005900;28;20755;-79
2022/01/06 11:45:06;;;;;;;3.07;1.07;;;13.00;96.10;;;;;;5012836;28;20209;-79
2022/01/06 11:47:37;;;;;;;4.07;1.10;;;13.00;95.80;;;;;;5050947;22;20238;-80
2022/01/06 11:50:11;;;;;;;3.57;1.10;;;13.00;95.30;;;;;;5065452;28;20215;-79
2022/01/06 11:52:49;;;;;;;3.87;1.30;;;13.00;95.10;;;;;;5043220;28;20216;-81
2022/01/06 11:55:16;;;;;;;2.60;1.10;;;12.90;95.30;;;;;;5037751;28;20251;-83
2022/01/06 11:57:44;;;;;;;3.17;1.00;;;12.90;94.80;;;;;;5043539;28;20328;-82
2022/01/06 12:00:17;;;;;;;4.77;0.97;;;12.80;95.00;;;;;;5047809;28;20501;-79
2022/01/06 12:02:59;;;;;;;4.13;1.30;;;12.70;94.40;;;;;;5045367;28;20237;-78
2022/01/06 12:05:26;;;;;;;3.37;0.97;;;12.60;94.50;;;;;;5045728;28;20288;-82
2022/01/06 12:07:54;;;;;;;2.80;1.00;;;12.60;95.00;;;;;;5047721;28;20228;-82
2022/01/06 12:10:21;;;;;;;2.87;1.07;;;12.50;94.70;;;;;;5048294;28;20279;-82
2022/01/06 12:12:50;;;;;;;2.47;1.00;;;12.50;94.80;;;;;;5042765;28;20354;-82
2022/01/06 12:15:19;;;;;;;4.20;1.17;;;12.40;95.00;;;;;;5041296;28;20632;-81
2022/01/06 12:17:51;;;;;;;3.87;1.00;;;12.40;95.20;;;;;;5021471;28;20703;-81
2022/01/06 12:20:22;;;;;;;3.60;1.10;;;12.40;95.10;;;;;;5041964;28;20229;-81
2022/01/06 12:22:50;;;;;;;2.53;1.10;;;12.40;94.90;;;;;;5014551;28;20357;-84
2022/01/06 12:25:21;;;;;;;3.83;1.40;;;12.50;95.20;;;;;;5018293;28;20727;-82
2022/01/06 12:27:49;;;;;;;2.97;1.00;;;12.50;95.10;;;;;;5025795;28;20226;-84
2022/01/06 12:30:18;;;;;;;4.20;1.17;;;12.50;95.00;;;;;;5029203;28;20254;-78
2022/01/06 12:33:00;;;;;;;2.17;1.10;;;12.40;95.20;;;;;;5051390;28;20223;-79
2022/01/06 12:35:39;;;;;;;2.77;0.93;;;12.40;94.50;;;;;;5042073;28;20591;-79
2022/01/06 12:38:06;;;;;;;3.53;1.27;;;12.40;94.60;;;;;;5044428;28;20225;-79
2022/01/06 12:40:34;;;;;;;4.40;1.30;;;12.30;94.90;;;;;;5040665;28;20219;-79
2022/01/06 12:43:13;;;;;;;3.47;1.00;;;12.30;94.70;;;;;;5028203;28;20232;-79
2022/01/06 12:45:40;;;;;;;2.07;0.90;;;12.30;94.20;;;;;;5049869;28;20747;-80
2022/01/06 12:48:08;;;;;;;3.03;1.20;;;12.30;94.80;;;;;;5028720;28;20215;-80
2022/01/06 12:50:45;;;;;;;3.50;1.10;;;12.20;94.30;;;;;;5042638;28;20336;-79
2022/01/06 12:53:23;;;;;;;3.17;1.00;;;12.10;94.00;;;;;;5046581;28;20216;-79
2022/01/06 12:55:50;;;;;;;3.23;0.93;;;12.10;94.50;;;;;;5026141;28;20226;-83
2022/01/06 12:58:25;;;;;;;2.73;1.00;;;12.10;94.50;;;;;;5046893;28;20214;-82
2022/01/06 13:00:56;;;;;;;3.93;0.90;;;12.00;94.20;;;;;;5037359;28;20229;-83
2022/01/06 13:03:28;;;;;;;3.70;1.17;;;11.90;94.00;;;;;;5038111;28;22053;-82